Time;durP1;ratioP1;P1;durP2;ratioP2;P2;SDS_P1;SDS_P2;PMS_P1;PMS_P2;Temp;Humidity;BMP_temperature;BMP_pressure;BME280_temperature;BME280_humidity;BME280_pressure;Samples;Min_cycle;Max_cycle;Signal;HPM_P1;HPM_P2
2023/08/07 00:00:32;;;;;;;2.47;2.28;;;15.60;99.90;;;-141.84;89.50;20490.66;5057023;28;20240;-65
2023/08/07 00:03:01;;;;;;;3.20;2.50;;;15.60;99.90;;;-141.84;89.75;20456.13;5063489;28;20650;-66
2023/08/07 00:05:30;;;;;;;2.50;2.22;;;15.50;99.90;;;-141.84;89.85;20439.84;5063134;28;20260;-65
2023/08/07 00:07:59;;;;;;;2.97;2.15;;;15.50;99.90;;;-141.84;89.76;20452.06;5063019;28;20232;-65
2023/08/07 00:10:28;;;;;;;2.47;2.28;;;15.40;99.90;;;-141.84;89.09;20462.22;5034959;28;20318;-65
2023/08/07 00:12:56;;;;;;;2.22;2.08;;;15.50;99.90;;;-141.84;89.04;20460.19;5045811;28;20219;-65
2023/08/07 00:15:24;;;;;;;3.05;2.17;;;15.50;99.90;;;-141.84;89.53;20482.53;5063425;28;20216;-66
2023/08/07 00:17:52;;;;;;;2.58;2.30;;;15.50;99.90;;;-141.84;89.34;20452.06;5063243;28;20236;-65
2023/08/07 00:20:21;;;;;;;2.40;2.20;;;15.50;99.90;;;-141.84;89.26;20472.38;5055050;28;20243;-65
2023/08/07 00:22:49;;;;;;;2.47;2.28;;;15.50;99.90;;;-141.84;89.53;20435.78;5062976;28;20315;-66
2023/08/07 00:25:20;;;;;;;2.30;2.10;;;15.50;99.90;;;-141.84;90.23;20484.56;5062997;28;20225;-66
2023/08/07 00:27:48;;;;;;;2.35;2.15;;;15.50;99.90;;;-141.84;90.23;20456.13;5062859;28;20209;-65
2023/08/07 00:30:17;;;;;;;2.42;2.22;;;15.50;99.90;;;-141.84;90.19;20443.91;5057891;28;20320;-64
2023/08/07 00:32:45;;;;;;;2.13;1.90;;;15.50;99.90;;;-141.84;89.57;20468.31;5063308;28;20255;-64
2023/08/07 00:35:14;;;;;;;2.50;2.30;;;15.50;99.90;;;-141.84;88.26;20517.09;5062779;28;20236;-65
2023/08/07 00:37:44;;;;;;;3.08;2.10;;;15.60;99.90;;;-141.84;88.45;20474.41;5062747;28;20635;-66
2023/08/07 00:40:12;;;;;;;2.42;2.17;;;15.60;99.90;;;-141.84;87.99;20502.88;5061599;28;20650;-66
2023/08/07 00:42:42;;;;;;;2.30;2.10;;;15.70;99.90;;;-141.84;87.97;20490.66;5058911;28;20737;-66
2023/08/07 00:45:11;;;;;;;1.83;1.73;;;15.70;99.90;;;-141.84;88.23;20480.50;5062780;28;20235;-65
2023/08/07 00:47:39;;;;;;;2.67;2.17;;;15.70;99.90;;;-141.84;88.26;20488.63;5062847;28;20266;-65
2023/08/07 00:50:09;;;;;;;2.28;2.08;;;15.70;99.90;;;-141.84;88.95;20472.38;5062642;28;20257;-65
2023/08/07 00:52:38;;;;;;;2.10;1.95;;;15.70;99.90;;;-141.84;87.51;20506.94;5054833;28;21129;-65
2023/08/07 00:55:07;;;;;;;2.60;2.40;;;15.70;99.90;;;-141.84;87.43;20513.03;5062174;28;21135;-65
2023/08/07 00:57:35;;;;;;;2.08;1.90;;;15.70;99.90;;;-141.84;87.65;20523.19;5062991;28;20777;-65
2023/08/07 01:00:07;;;;;;;1.98;1.88;;;15.80;99.90;;;-141.84;87.79;20498.81;5061642;28;20232;-65
2023/08/07 01:02:36;;;;;;;2.10;2.00;;;15.80;99.90;;;-141.84;86.92;20492.72;5055060;28;20718;-65
2023/08/07 01:05:05;;;;;;;2.08;1.88;;;15.80;99.90;;;-141.84;87.78;20500.84;5062529;28;20287;-65
2023/08/07 01:07:33;;;;;;;4.40;2.08;;;15.70;99.90;;;-141.84;87.85;20533.34;5062487;28;20225;-66
2023/08/07 01:10:03;;;;;;;2.10;1.90;;;15.80;99.90;;;-141.84;86.53;20535.41;5048742;28;20307;-66
2023/08/07 01:12:43;;;;;;;2.28;2.10;;;15.80;99.90;;;-141.84;86.64;20502.88;5039171;28;20201;-66
2023/08/07 01:15:17;;;;;;;2.33;2.15;;;15.80;99.90;;;-141.84;87.93;20494.75;5026947;28;20257;-64
2023/08/07 01:17:47;;;;;;;2.40;2.20;;;15.80;99.90;;;-141.84;87.36;20476.44;5026644;28;20238;-64
2023/08/07 01:20:16;;;;;;;3.65;2.83;;;15.70;99.90;;;-141.84;88.75;20443.91;5039477;28;20780;-65
2023/08/07 01:22:46;;;;;;;2.95;2.60;;;15.70;99.90;;;-141.84;89.60;20464.25;5045936;28;20318;-66
2023/08/07 01:25:14;;;;;;;2.92;2.72;;;15.60;99.90;;;-141.84;89.36;20474.41;5045586;28;20227;-65
2023/08/07 01:27:54;;;;;;;3.15;2.60;;;15.60;99.90;;;-141.84;87.64;20488.63;5046809;28;20221;-65
2023/08/07 01:30:34;;;;;;;3.13;2.80;;;15.70;99.90;;;-141.84;88.65;20454.09;5044043;28;20312;-65
2023/08/07 01:33:14;;;;;;;3.58;2.80;;;15.70;99.90;;;-141.84;89.57;20460.19;5046233;28;20308;-66
2023/08/07 01:35:50;;;;;;;3.08;2.78;;;15.60;99.90;;;-141.84;90.77;20476.44;5046085;28;20316;-66
2023/08/07 01:38:24;;;;;;;4.13;3.35;;;15.50;99.90;;;-141.84;90.14;20454.09;5038198;28;20248;-66
2023/08/07 01:40:54;;;;;;;3.83;3.13;;;15.60;99.90;;;-141.84;89.39;20452.06;5045285;28;20330;-65
2023/08/07 01:43:22;;;;;;;3.97;3.03;;;15.50;99.90;;;-141.84;89.96;20460.19;5046170;28;20279;-65
2023/08/07 01:45:50;;;;;;;3.83;3.53;;;15.50;99.90;;;-141.84;89.27;20450.03;5052173;28;20268;-65
2023/08/07 01:48:18;;;;;;;4.13;3.72;;;15.50;99.90;;;-141.84;88.07;20439.84;5057001;28;20260;-65
2023/08/07 01:50:48;;;;;;;4.07;3.65;;;15.50;99.90;;;-141.84;88.57;20468.31;5056102;28;20291;-65
2023/08/07 01:53:16;;;;;;;3.65;3.35;;;15.50;99.90;;;-141.84;89.30;20433.75;5065791;28;20285;-65
2023/08/07 01:55:46;;;;;;;5.32;4.07;;;15.50;99.90;;;-141.84;89.84;20421.56;5065563;28;20238;-65
2023/08/07 01:58:14;;;;;;;6.35;3.83;;;15.50;99.90;;;-141.84;89.66;20445.94;5065367;28;20223;-65
2023/08/07 02:00:42;;;;;;;3.67;3.38;;;15.30;99.90;;;-141.84;89.73;20450.03;5063604;28;20212;-65
2023/08/07 02:03:10;;;;;;;5.80;3.53;;;15.40;99.90;;;-141.84;90.53;20417.50;5065736;28;20256;-64
2023/08/07 02:05:39;;;;;;;4.68;3.90;;;15.40;99.90;;;-141.84;90.03;20452.06;5065410;28;20268;-65
2023/08/07 02:08:07;;;;;;;4.07;3.70;;;15.50;99.90;;;-141.84;89.76;20439.84;5064986;28;20727;-65
2023/08/07 02:10:35;;;;;;;5.30;3.58;;;15.50;99.90;;;-141.84;89.91;20437.81;5057650;28;20327;-65
2023/08/07 02:13:04;;;;;;;6.55;3.00;;;15.50;99.90;;;-141.84;89.42;20443.91;5065113;28;20695;-64
2023/08/07 02:15:33;;;;;;;5.80;3.08;;;15.50;99.90;;;-141.84;89.75;20441.88;5066186;28;20288;-65
2023/08/07 02:18:01;;;;;;;3.17;2.88;;;15.50;99.90;;;-141.84;89.58;20387.00;5065209;28;20278;-65
2023/08/07 02:20:29;;;;;;;3.60;3.08;;;15.50;99.90;;;-141.84;89.38;20431.72;5056249;28;20248;-65
2023/08/07 02:22:57;;;;;;;3.05;2.83;;;15.50;99.90;;;-141.84;89.02;20464.25;5065312;28;20311;-65
2023/08/07 02:25:25;;;;;;;3.28;2.80;;;15.40;99.90;;;-141.84;89.52;20413.44;5064934;28;20795;-65
2023/08/07 02:27:54;;;;;;;3.85;2.95;;;15.40;99.90;;;-141.84;90.01;20376.84;5065418;28;20668;-65
2023/08/07 02:30:23;;;;;;;5.72;3.08;;;15.30;99.90;;;-141.84;90.41;20382.94;5057798;28;20270;-64
2023/08/07 02:32:51;;;;;;;5.03;3.38;;;15.20;99.90;;;-141.84;90.38;20419.53;5065426;28;20221;-65
2023/08/07 02:35:20;;;;;;;4.32;3.92;;;15.20;99.90;;;-141.84;90.69;20387.00;5065135;28;20228;-66
2023/08/07 02:37:48;;;;;;;4.13;3.63;;;15.10;99.90;;;-141.84;90.57;20380.91;5065479;28;20232;-64
2023/08/07 02:40:18;;;;;;;5.15;3.60;;;15.10;99.90;;;-141.84;90.98;20374.81;5041997;28;20213;-65
2023/08/07 02:42:46;;;;;;;5.85;4.53;;;14.90;99.90;;;-141.84;90.94;20413.44;5057076;28;20244;-65
2023/08/07 02:45:15;;;;;;;5.90;3.97;;;15.10;99.90;;;-141.84;89.98;20413.44;5064752;28;20275;-66
2023/08/07 02:47:44;;;;;;;7.13;4.00;;;15.10;99.90;;;-141.84;88.82;20460.19;5064967;28;20315;-66
2023/08/07 02:50:13;;;;;;;5.25;4.18;;;15.20;99.90;;;-141.84;88.90;20452.06;5064625;28;20236;-66
2023/08/07 02:52:41;;;;;;;3.80;3.47;;;15.20;99.90;;;-141.84;89.53;20409.38;5059852;28;20715;-65
2023/08/07 02:55:13;;;;;;;4.38;3.40;;;15.20;99.90;;;-141.84;89.31;20445.94;5064407;28;20205;-65
2023/08/07 02:57:41;;;;;;;5.82;3.95;;;15.30;99.90;;;-141.84;88.58;20433.75;5064851;28;20239;-66
2023/08/07 03:00:11;;;;;;;3.28;3.00;;;15.30;99.90;;;-141.84;87.84;20423.59;5064599;28;20317;-66
2023/08/07 03:02:39;;;;;;;5.20;3.80;;;15.30;99.90;;;-141.84;87.73;20458.16;5057566;28;20236;-66
2023/08/07 03:05:10;;;;;;;5.85;3.75;;;15.30;99.90;;;-141.84;87.63;20415.47;5064516;28;20228;-66
2023/08/07 03:07:38;;;;;;;3.90;3.60;;;15.30;99.90;;;-141.84;88.31;20435.78;5064353;28;20782;-66
2023/08/07 03:10:08;;;;;;;4.05;3.58;;;15.30;99.90;;;-141.84;85.81;20450.03;5062830;28;20538;-64
2023/08/07 03:12:37;;;;;;;4.63;3.58;;;15.40;99.90;;;-141.84;86.52;20474.41;5056828;28;26013;-65
2023/08/07 03:15:07;;;;;;;4.55;3.50;;;15.30;99.90;;;-141.84;86.88;20427.66;5064584;28;20228;-65
2023/08/07 03:17:35;;;;;;;3.92;3.30;;;15.30;99.90;;;-141.84;86.59;20435.78;5064418;28;20319;-65
2023/08/07 03:20:04;;;;;;;3.63;3.15;;;15.30;99.90;;;-141.84;87.79;20433.75;5064014;28;20228;-65
2023/08/07 03:22:34;;;;;;;5.30;4.05;;;15.30;99.90;;;-141.84;88.06;20445.94;5056914;28;20307;-66
2023/08/07 03:25:03;;;;;;;3.90;3.47;;;15.30;99.90;;;-141.84;88.41;20419.53;5063552;28;20208;-65
2023/08/07 03:27:31;;;;;;;3.58;3.05;;;15.20;99.90;;;-141.84;87.72;20403.25;5064344;28;20216;-65
2023/08/07 03:29:59;;;;;;;3.50;3.20;;;15.30;99.90;;;-141.84;87.97;20452.06;5063624;28;20763;-66
2023/08/07 03:32:27;;;;;;;3.28;3.00;;;15.30;99.90;;;-141.84;87.68;20413.44;5056569;28;20228;-66
2023/08/07 03:34:55;;;;;;;4.82;3.45;;;15.30;99.90;;;-141.84;86.62;20460.19;5064030;28;20228;-66
2023/08/07 03:37:24;;;;;;;3.38;3.10;;;15.30;99.90;;;-141.84;85.88;20472.38;5063964;28;20716;-66
2023/08/07 03:39:53;;;;;;;5.40;2.75;;;15.30;99.90;;;-141.84;85.47;20441.88;5063292;28;20266;-66
2023/08/07 03:42:21;;;;;;;3.22;3.03;;;15.40;99.90;;;-141.84;85.90;20486.59;5055306;28;20270;-65
2023/08/07 03:44:50;;;;;;;3.40;3.10;;;15.40;99.90;;;-141.84;86.23;20452.06;5063432;28;20315;-65
2023/08/07 03:47:18;;;;;;;3.70;3.40;;;15.40;99.90;;;-141.84;86.43;20472.38;5063585;28;20225;-65
2023/08/07 03:49:46;;;;;;;5.60;4.80;;;15.40;99.90;;;-141.84;87.08;20427.66;5062893;28;20256;-65
2023/08/07 03:52:14;;;;;;;3.38;3.08;;;15.40;99.90;;;-141.84;86.78;20462.22;5063057;28;20236;-65
2023/08/07 03:54:42;;;;;;;2.88;2.67;;;15.40;99.90;;;-141.84;85.51;20452.06;5063548;28;20209;-65
2023/08/07 03:57:12;;;;;;;4.80;3.00;;;15.40;99.90;;;-141.84;86.63;20482.53;5063249;28;20248;-65
2023/08/07 03:59:40;;;;;;;6.18;5.57;;;15.40;99.90;;;-141.84;87.48;20472.38;5063046;28;20236;-65
2023/08/07 04:02:08;;;;;;;6.13;3.72;;;15.40;99.90;;;-141.84;87.37;20454.09;5063517;28;20260;-65
2023/08/07 04:04:36;;;;;;;5.78;3.40;;;15.40;99.90;;;-141.84;87.24;20443.91;5055888;28;20771;-65
2023/08/07 04:07:05;;;;;;;3.90;3.60;;;15.40;99.90;;;-141.84;86.94;20504.91;5063670;28;20252;-65
2023/08/07 04:09:33;;;;;;;4.43;4.03;;;15.40;99.90;;;-141.84;87.16;20415.47;5049793;28;20701;-65
2023/08/07 04:12:02;;;;;;;4.28;3.88;;;15.30;99.90;;;-141.84;87.05;20427.66;5043355;28;20240;-65
2023/08/07 04:14:31;;;;;;;4.07;3.40;;;15.30;99.90;;;-141.84;86.82;20447.97;5054659;28;20303;-65
2023/08/07 04:17:00;;;;;;;5.03;3.90;;;15.30;99.90;;;-141.84;86.18;20464.25;5063489;28;20274;-65
2023/08/07 04:19:29;;;;;;;3.50;2.90;;;15.40;99.90;;;-141.84;85.08;20468.31;5062853;28;20273;-65
2023/08/07 04:21:57;;;;;;;3.70;3.40;;;15.40;99.90;;;-141.84;85.51;20464.25;5063520;28;20232;-65
2023/08/07 04:24:25;;;;;;;3.47;3.00;;;15.40;99.90;;;-141.84;84.70;20486.59;5055259;28;20602;-65
2023/08/07 04:26:54;;;;;;;2.88;2.67;;;15.40;99.90;;;-141.84;84.25;20494.75;5062790;28;20307;-65
2023/08/07 04:29:22;;;;;;;2.80;2.60;;;15.50;99.90;;;-141.84;84.96;20445.94;5062656;28;20224;-65
2023/08/07 04:31:52;;;;;;;2.50;2.30;;;15.50;99.90;;;-141.84;84.53;20488.63;5062359;28;20232;-66
2023/08/07 04:34:20;;;;;;;5.90;2.60;;;15.50;99.90;;;-141.84;83.47;20511.00;5055088;28;20205;-64
2023/08/07 04:36:50;;;;;;;2.60;2.40;;;15.50;99.90;;;-141.84;84.05;20476.44;5063111;28;20293;-66
2023/08/07 04:39:18;;;;;;;2.20;2.00;;;15.50;99.90;;;-141.84;83.64;20478.47;5051383;28;20243;-65
2023/08/07 04:41:47;;;;;;;4.35;1.98;;;15.50;99.90;;;-141.84;83.73;20472.38;5042923;28;20228;-66
2023/08/07 04:44:15;;;;;;;2.17;2.00;;;;;;;-141.84;83.29;20492.72;5040381;28;20316;-66
2023/08/07 04:46:44;;;;;;;2.60;2.40;;;15.50;99.90;;;-141.84;81.93;20531.31;5042763;28;20739;-66
2023/08/07 04:49:13;;;;;;;2.67;1.80;;;15.60;99.90;;;-141.84;82.44;20531.31;5050600;28;20229;-65
2023/08/07 04:51:41;;;;;;;4.38;2.08;;;15.70;99.90;;;-141.84;81.27;20551.66;5063066;28;20270;-65
2023/08/07 04:54:10;;;;;;;2.17;1.83;;;15.70;99.90;;;-141.84;82.26;20533.34;5062210;28;20279;-66
2023/08/07 04:56:38;;;;;;;2.85;1.92;;;15.60;99.90;;;-141.84;82.78;20531.31;5054971;28;20319;-65
2023/08/07 04:59:06;;;;;;;2.92;1.70;;;15.70;99.90;;;-141.84;82.19;20541.50;5062703;28;20286;-65
2023/08/07 05:01:34;;;;;;;2.15;1.95;;;15.70;99.90;;;-141.84;81.87;20578.09;5062841;28;20259;-64
2023/08/07 05:04:04;;;;;;;1.90;1.60;;;15.80;99.90;;;-141.84;81.44;20600.44;5062689;28;20243;-66
2023/08/07 05:06:34;;;;;;;2.20;1.65;;;15.80;99.90;;;-141.84;81.26;20543.53;5055381;28;20208;-65
2023/08/07 05:09:03;;;;;;;2.35;1.70;;;15.80;99.90;;;-141.84;80.04;20557.75;5061727;28;20700;-66
2023/08/07 05:11:31;;;;;;;1.60;1.50;;;15.90;99.90;;;-141.84;80.64;20614.66;5062053;28;20298;-65
2023/08/07 05:13:59;;;;;;;1.73;1.63;;;16.00;99.90;;;-141.84;80.42;20606.53;5062612;28;20252;-65
2023/08/07 05:16:27;;;;;;;1.88;1.50;;;16.00;99.90;;;-141.84;78.58;20637.03;5055139;28;20295;-66
2023/08/07 05:18:56;;;;;;;2.03;1.50;;;16.10;99.90;;;-141.84;77.97;20643.13;5062909;28;20201;-65
2023/08/07 05:21:24;;;;;;;1.20;1.10;;;16.20;99.90;;;-141.84;78.39;20661.44;5062274;28;20232;-65
2023/08/07 05:23:55;;;;;;;4.25;1.70;;;16.30;99.90;;;-141.84;77.81;20659.38;5062164;28;20775;-66
2023/08/07 05:26:23;;;;;;;2.13;1.40;;;16.20;99.90;;;-141.84;79.84;20614.66;5055268;28;20283;-65
2023/08/07 05:28:51;;;;;;;2.25;1.65;;;16.20;99.90;;;-141.84;80.18;20612.63;5062593;28;20313;-61
2023/08/07 05:31:19;;;;;;;1.70;1.60;;;16.20;99.90;;;-141.84;79.10;20657.34;5061762;28;20588;-62
2023/08/07 05:33:47;;;;;;;2.33;1.60;;;16.20;99.90;;;-141.84;78.33;20698.00;5062510;28;20215;-61
2023/08/07 05:36:16;;;;;;;2.33;1.40;;;16.30;99.90;;;-141.84;77.02;20663.47;5059153;28;20261;-60
2023/08/07 05:38:44;;;;;;;1.85;1.48;;;16.20;99.90;;;-141.84;77.15;20673.63;5055249;28;20229;-61
2023/08/07 05:41:13;;;;;;;2.15;1.52;;;16.30;99.90;;;-141.84;77.33;20708.19;5042225;28;20229;-61
2023/08/07 05:43:42;;;;;;;2.33;1.80;;;16.30;99.90;;;-141.84;77.24;20704.13;5042216;28;20271;-61
2023/08/07 05:46:10;;;;;;;2.83;1.70;;;16.30;99.90;;;-141.84;75.67;20691.91;5042526;28;20292;-61
2023/08/07 05:48:38;;;;;;;1.70;1.30;;;16.40;99.90;;;-141.84;76.12;20708.19;5037905;28;20258;-62
2023/08/07 05:51:07;;;;;;;1.73;1.40;;;16.50;99.90;;;-141.84;74.86;20801.69;5060844;28;20264;-62
2023/08/07 05:53:36;;;;;;;2.42;1.20;;;16.70;99.90;;;-141.84;72.13;20905.38;5061953;28;20227;-62
2023/08/07 05:56:05;;;;;;;2.45;1.45;;;17.00;99.90;;;-141.84;71.62;20919.59;5065465;28;20282;-61
2023/08/07 05:58:34;;;;;;;1.50;1.40;;;17.30;99.90;;;-141.84;71.65;20895.19;5058064;28;20594;-61
2023/08/07 06:01:03;;;;;;;3.58;1.10;;;17.40;99.90;;;-141.84;71.55;20907.41;5065798;28;20274;-61
2023/08/07 06:03:31;;;;;;;1.30;1.20;;;17.30;99.90;;;-141.84;71.73;20883.00;5065927;28;20264;-62
2023/08/07 06:05:59;;;;;;;1.50;1.40;;;17.30;99.90;;;-141.84;73.01;20858.59;5065155;28;20235;-62
2023/08/07 06:08:28;;;;;;;1.55;1.40;;;17.20;99.90;;;-141.84;73.22;20868.78;5052923;28;20313;-61
2023/08/07 06:10:57;;;;;;;1.52;1.30;;;17.20;99.90;;;-141.84;72.36;20862.69;5045502;28;20252;-62
2023/08/07 06:13:25;;;;;;;1.83;1.50;;;17.10;99.90;;;-141.84;73.31;20803.72;5050082;28;20767;-61
2023/08/07 06:16:06;;;;;;;1.60;1.50;;;17.00;99.90;;;-141.84;73.50;20838.28;5065699;28;20527;-66
2023/08/07 06:18:35;;;;;;;2.30;1.50;;;17.00;99.90;;;-141.84;73.87;20822.03;5055440;28;20614;-66
2023/08/07 06:21:04;;;;;;;2.05;1.65;;;17.00;99.90;;;-141.84;73.78;20799.66;5065168;28;20256;-66
2023/08/07 06:23:32;;;;;;;3.97;1.67;;;16.80;99.90;;;-141.84;74.38;20773.22;5064457;28;20254;-67
2023/08/07 06:26:03;;;;;;;2.78;1.85;;;16.80;99.90;;;-141.84;74.52;20734.59;5065150;28;20259;-66
2023/08/07 06:28:33;;;;;;;3.17;1.50;;;16.70;99.90;;;-141.84;74.66;20761.03;5056545;28;20270;-65
2023/08/07 06:31:04;;;;;;;1.88;1.63;;;16.70;99.90;;;-141.84;73.72;20787.47;5064714;28;20239;-66
2023/08/07 06:33:33;;;;;;;1.80;1.60;;;16.80;99.90;;;-141.84;73.12;20799.66;5065168;28;20220;-67
2023/08/07 06:36:01;;;;;;;1.77;1.60;;;16.80;99.90;;;-141.84;73.43;20809.81;5064554;28;20784;-66
2023/08/07 06:38:30;;;;;;;1.67;1.58;;;16.90;99.90;;;-141.84;72.26;20822.03;5055853;28;20692;-66
2023/08/07 06:40:58;;;;;;;1.45;1.35;;;16.90;99.90;;;-141.84;72.96;20813.88;5065037;28;20307;-64
2023/08/07 06:43:27;;;;;;;2.05;1.52;;;17.00;99.90;;;-141.84;72.32;20911.47;5064719;28;20236;-65
2023/08/07 06:45:57;;;;;;;2.13;1.40;;;17.20;99.90;;;-141.84;70.56;20937.91;5057825;28;20205;-65
2023/08/07 06:48:27;;;;;;;1.75;1.30;;;17.40;99.90;;;-141.84;69.82;21021.25;5052517;28;20221;-64
2023/08/07 06:50:55;;;;;;;1.45;1.33;;;17.60;99.90;;;-141.84;67.32;21072.06;5050591;28;20416;-66
2023/08/07 06:53:23;;;;;;;2.38;1.30;;;17.90;99.90;;;-141.84;66.33;21147.28;5041430;28;20234;-65
2023/08/07 06:55:52;;;;;;;4.55;1.20;;;18.10;99.90;;;-141.84;65.98;21181.84;5042676;28;20309;-64
2023/08/07 06:58:23;;;;;;;3.47;1.20;;;18.30;99.90;;;-141.84;66.02;21143.22;5034851;28;20217;-65
2023/08/07 07:00:51;;;;;;;1.35;1.05;;;18.30;99.90;;;-141.84;66.77;21157.47;5044343;28;20681;-65
2023/08/07 07:03:19;;;;;;;2.17;1.30;;;18.40;99.90;;;-141.84;65.87;21173.72;5040833;28;20724;-65
2023/08/07 07:05:50;;;;;;;1.75;1.08;;;18.50;99.90;;;-141.84;66.14;21114.75;5043058;28;20229;-65
2023/08/07 07:08:18;;;;;;;1.25;1.15;;;18.40;99.90;;;-141.84;66.89;21116.78;5032501;28;20253;-64
2023/08/07 07:10:46;;;;;;;1.20;1.00;;;18.40;99.90;;;-141.84;66.76;21143.22;5036540;28;20327;-65
2023/08/07 07:13:15;;;;;;;2.28;1.33;;;18.50;99.90;;;-141.84;65.80;21248.94;5048231;28;20196;-65
2023/08/07 07:15:43;;;;;;;2.05;1.20;;;18.60;99.90;;;-141.84;63.82;21279.44;5043961;28;20284;-65
2023/08/07 07:18:11;;;;;;;0.93;0.85;;;18.80;99.90;;;-141.84;64.32;21289.59;5042540;28;20225;-65
2023/08/07 07:20:39;;;;;;;2.83;1.15;;;18.90;99.90;;;-141.84;63.57;21332.31;5041627;28;20256;-66
2023/08/07 07:23:08;;;;;;;0.80;0.80;;;19.00;99.90;;;-141.84;63.75;21350.59;5042778;28;20225;-65
2023/08/07 07:25:37;;;;;;;1.33;0.90;;;19.10;99.90;;;-141.84;63.15;21389.22;5043365;28;20213;-65
2023/08/07 07:28:05;;;;;;;0.95;0.95;;;19.20;99.90;;;-141.84;62.04;21452.25;5043093;28;20240;-65
2023/08/07 07:30:34;;;;;;;1.00;0.80;;;19.40;99.90;;;-141.84;62.63;21366.88;5034653;28;20239;-65
2023/08/07 07:33:02;;;;;;;1.05;0.70;;;19.40;99.90;;;-141.84;64.13;21320.09;5042950;28;20359;-65
2023/08/07 07:35:30;;;;;;;1.90;1.05;;;19.30;99.90;;;-141.84;64.29;21299.78;5042818;28;20229;-67
2023/08/07 07:37:58;;;;;;;2.05;0.73;;;19.20;99.90;;;-141.84;64.46;21314.00;5042797;28;20312;-66
2023/08/07 07:40:28;;;;;;;0.85;0.80;;;19.10;99.90;;;-141.84;64.46;21320.09;5024970;28;20249;-65
2023/08/07 07:42:56;;;;;;;2.00;0.90;;;19.20;99.90;;;-141.84;64.15;21326.22;5041898;28;20653;-66
2023/08/07 07:45:24;;;;;;;0.80;0.80;;;19.30;99.90;;;-141.84;64.48;21350.59;5042610;28;20320;-65
2023/08/07 07:47:52;;;;;;;0.75;0.70;;;19.30;99.90;;;-141.84;63.71;21293.69;5042546;28;20225;-65
2023/08/07 07:50:21;;;;;;;1.80;0.80;;;19.30;99.90;;;-141.84;63.87;21305.88;5035002;28;20260;-65
2023/08/07 07:52:49;;;;;;;1.13;0.90;;;19.20;99.90;;;-141.84;65.07;21279.44;5041968;28;20290;-65
2023/08/07 07:55:17;;;;;;;1.02;0.90;;;19.00;99.90;;;-141.84;64.86;21314.00;5041475;28;20289;-66
2023/08/07 07:57:47;;;;;;;0.85;0.85;;;19.00;99.90;;;-141.84;64.03;21314.00;5045572;28;20292;-65
2023/08/07 08:00:16;;;;;;;1.17;1.00;;;19.10;99.90;;;-141.84;61.97;21372.97;5042425;28;20248;-65
2023/08/07 08:02:44;;;;;;;1.10;0.70;;;19.30;99.90;;;-141.84;62.45;21403.47;5042018;28;20656;-66
2023/08/07 08:05:13;;;;;;;0.80;0.80;;;19.30;99.90;;;-141.84;61.90;21411.59;5041706;28;20229;-65
2023/08/07 08:07:41;;;;;;;0.80;0.80;;;19.40;99.90;;;-141.84;59.79;21484.78;5038994;28;20754;-65
2023/08/07 08:10:10;;;;;;;1.70;1.00;;;19.50;99.90;;;-141.84;59.74;21478.69;5039126;28;20252;-66
2023/08/07 08:12:38;;;;;;;0.65;0.65;;;19.60;99.90;;;-141.84;60.70;21417.69;5034859;28;20578;-65
2023/08/07 08:15:09;;;;;;;1.95;0.95;;;19.50;99.90;;;-141.84;62.75;21362.81;5039326;28;20249;-66
2023/08/07 08:17:37;;;;;;;1.23;0.77;;;19.20;99.90;;;-141.84;62.33;21368.91;5040962;28;20308;-65
2023/08/07 08:20:08;;;;;;;1.55;0.88;;;19.20;99.90;;;-141.84;60.86;21436.00;5041397;28;20229;-65
2023/08/07 08:22:36;;;;;;;1.98;0.90;;;19.40;99.90;;;-141.84;60.40;21480.72;5034581;28;20225;-66
2023/08/07 08:25:06;;;;;;;1.40;0.80;;;19.50;99.90;;;-141.84;60.68;21415.66;5042007;28;20209;-65
2023/08/07 08:27:34;;;;;;;0.98;0.90;;;19.40;99.90;;;-141.84;61.72;21407.53;5042708;28;20911;-66
2023/08/07 08:30:03;;;;;;;3.53;1.00;;;19.20;99.90;;;-141.84;62.49;21356.69;5041511;28;20225;-66
2023/08/07 08:32:33;;;;;;;1.08;0.80;;;19.20;99.90;;;-141.84;62.65;21307.91;5033935;28;20284;-67
2023/08/07 08:35:01;;;;;;;1.45;1.10;;;19.00;99.90;;;-141.84;63.35;21261.16;5041495;28;20724;-61
2023/08/07 08:37:30;;;;;;;0.73;0.73;;;18.80;99.90;;;-141.84;63.36;21248.94;5041814;28;20267;-61
2023/08/07 08:39:58;;;;;;;1.00;0.90;;;18.70;99.90;;;-141.84;62.89;21293.69;5032127;28;20246;-62
2023/08/07 08:42:27;;;;;;;1.52;0.70;;;18.80;99.90;;;-141.84;62.74;21354.66;5034131;28;20225;-62
2023/08/07 08:44:59;;;;;;;1.83;0.80;;;18.90;99.90;;;-141.84;62.04;21417.69;5042051;28;20231;-62
2023/08/07 08:47:27;;;;;;;1.92;1.02;;;19.10;99.90;;;-141.84;60.27;21472.59;5042261;28;20229;-62
2023/08/07 08:50:08;;;;;;;1.25;1.02;;;19.40;99.90;;;-141.84;58.71;21535.63;5040809;28;20223;-62
2023/08/07 08:52:42;;;;;;;1.70;0.98;;;19.70;99.90;;;-141.84;58.52;21513.25;5033372;28;22860;-63
2023/08/07 08:55:11;;;;;;;1.17;0.88;;;19.90;99.90;;;-141.84;59.60;21513.25;5041042;28;20301;-62
2023/08/07 08:57:40;;;;;;;3.47;1.08;;;19.70;99.90;;;-141.84;60.54;21470.56;5041987;28;20201;-62
2023/08/07 09:00:18;;;;;;;1.27;1.10;;;19.70;99.90;;;-141.84;60.11;21454.28;5028913;28;20275;-62
2023/08/07 09:02:47;;;;;;;1.67;0.93;;;19.60;99.90;;;-141.84;61.30;21366.88;5041617;28;20328;-61
2023/08/07 09:05:19;;;;;;;1.65;1.00;;;19.40;99.90;;;-141.84;63.30;21273.34;5040574;28;20239;-63
2023/08/07 09:07:49;;;;;;;1.13;1.02;;;19.10;99.90;;;-141.84;63.89;21261.16;5041133;28;20221;-62
2023/08/07 09:10:19;;;;;;;4.53;1.30;;;18.90;99.90;;;-141.84;63.26;21232.69;5023056;28;20562;-64
2023/08/07 09:12:57;;;;;;;1.30;1.20;;;18.80;99.90;;;-141.84;63.57;21271.31;5042681;28;20232;-63
2023/08/07 09:15:28;;;;;;;1.42;1.00;;;18.80;99.90;;;-141.84;62.79;21346.53;5042366;28;20314;-62
2023/08/07 09:17:56;;;;;;;1.50;0.80;;;19.00;99.90;;;-141.84;61.63;21431.94;5041867;28;20304;-62
2023/08/07 09:20:26;;;;;;;0.93;0.80;;;19.20;99.90;;;-141.84;60.46;21494.97;5038416;28;20602;-62
2023/08/07 09:22:55;;;;;;;2.35;1.00;;;19.40;99.90;;;-141.84;58.94;21574.25;5041701;28;20712;-62
2023/08/07 09:25:30;;;;;;;1.80;0.60;;;19.80;99.90;;;-141.84;58.39;21619.00;5040740;28;20257;-61
2023/08/07 09:27:59;;;;;;;1.73;0.82;;;20.10;99.90;;;-141.84;58.15;21647.47;5041448;28;20573;-61
2023/08/07 09:30:29;;;;;;;1.45;1.10;;;20.20;99.90;;;-141.84;58.36;21657.63;5036898;28;20213;-62
2023/08/07 09:32:58;;;;;;;0.98;0.90;;;20.30;99.90;;;-141.84;58.11;21684.06;5045647;28;20303;-61
2023/08/07 09:35:30;;;;;;;1.25;0.98;;;20.40;99.90;;;-141.84;58.39;21645.44;5043537;28;20269;-62
2023/08/07 09:37:59;;;;;;;0.90;0.90;;;20.40;99.90;;;-141.84;58.53;21623.06;5044977;28;20229;-62
2023/08/07 09:40:27;;;;;;;1.08;1.00;;;20.30;99.90;;;-141.84;59.56;21594.59;5027576;28;20225;-63
2023/08/07 09:42:56;;;;;;;1.00;0.90;;;20.20;99.90;;;-141.84;58.53;21606.78;5045389;28;20201;-63
2023/08/07 09:45:26;;;;;;;1.83;1.23;;;20.20;99.90;;;-141.84;57.87;21671.84;5044531;28;20229;-62
2023/08/07 09:48:00;;;;;;;1.30;1.10;;;20.30;99.90;;;-141.84;57.24;21714.56;5045233;28;20225;-63
2023/08/07 09:50:31;;;;;;;0.82;0.80;;;20.40;99.90;;;-141.84;57.46;21698.28;5036085;28;20347;-62
2023/08/07 09:53:00;;;;;;;1.85;0.80;;;20.50;99.90;;;-141.84;57.75;21696.25;5044715;28;20233;-62
2023/08/07 09:55:28;;;;;;;1.05;0.80;;;20.50;99.90;;;-141.84;57.69;21625.09;5044361;28;20225;-62
2023/08/07 09:57:56;;;;;;;0.60;0.60;;;20.30;99.90;;;-141.84;58.56;21645.44;5044960;28;20255;-62
2023/08/07 10:00:25;;;;;;;0.70;0.70;;;20.30;99.90;;;-141.84;58.87;21523.44;5037079;28;20227;-62
2023/08/07 10:02:55;;;;;;;1.17;0.70;;;20.00;99.90;;;-141.84;62.42;21372.97;5044234;28;20268;-62
2023/08/07 10:05:24;;;;;;;0.93;0.77;;;19.60;99.90;;;-141.84;64.17;21289.59;5041091;28;20771;-62
2023/08/07 10:07:55;;;;;;;1.80;1.02;;;19.20;99.90;;;-141.84;67.24;21222.53;5034799;28;20308;-61
2023/08/07 10:10:25;;;;;;;2.33;0.70;;;18.90;99.90;;;-141.84;69.57;21143.22;5033695;28;20602;-62
2023/08/07 10:12:55;;;;;;;0.73;0.70;;;18.60;99.90;;;-141.84;70.43;21055.81;5045641;28;20585;-62